Kezdőlap
METAR-TAF:

METAR-TAF

Repülőterek :

Capo Mele

Andora, Olaszország

földrajzi szélesség: 43-57N, földrajzi hosszúság: 008-10E, magasság: 220 m

Jelenlegi meteorológiai megfigyelések

A jelentés 41 perccel ezelõtt készült, 13:55 UTC
Északkeleti szél 8 kt
Hőmérséklet 17°C
Páratartalom 77%
Légköri nyomás 1024 hPa
Látótávolság 10 km, vagy több
Kevés felhő 2000 lábon
Szórványos felhőzet 2300 lábon

METAR: LIMU 181355Z 05008KT 9999 FEW020 SCT023 17/13 Q1024 RMK BKN QUK 2 QUL 1 E VIS MAR 20 KM VIS MIN 9999

Idő: 15:36 (14:36 UTC)


TAF: hiányzik

Meteorológiai megfigyelések és előrejelzések több, mint 4000 repülőtéren (METAR és TAF jelentéseket).

A térképen piros és sárga pontok jelzik az elérhető meteorológiai állomásokat.

Mozgassa az egeret a pont fölött, hogy megjelenjen az állomás neve.

Azután kattintson az időjárási megfigyelések és előrejelzések megtekintéséhez.

A térkép megváltoztatása: kattintson a fekete keresztel jelölt zöld gombra ráközelítéshez, a vonallal jelölt zöld gombra távolításhoz, vagy a zöld nyilakra a szomszédos térképek eléréséhez.


METAR-TAF: